Time;durP1;ratioP1;P1;durP2;ratioP2;P2;SDS_P1;SDS_P2;PMS_P1;PMS_P2;Temp;Humidity;BMP_temperature;BMP_pressure;BME280_temperature;BME280_humidity;BME280_pressure;Samples;Min_cycle;Max_cycle;Signal;HPM_P1;HPM_P2
2023/12/26 00:02:23;;;;;;;0.28;0.17;;;22.80;54.80;;;;;;5118189;27;20019;-39
2023/12/26 00:04:49;;;;;;;1.27;0.10;;;22.70;54.80;;;;;;5115862;28;20550;-39
2023/12/26 00:07:15;;;;;;;0.90;0.10;;;22.70;54.70;;;;;;5112305;28;20038;-39
2023/12/26 00:09:41;;;;;;;1.00;0.17;;;22.70;54.80;;;;;;5110399;28;20139;-39
2023/12/26 00:12:08;;;;;;;1.13;0.20;;;22.70;54.80;;;;;;5110709;28;20024;-39
2023/12/26 00:14:34;;;;;;;0.55;0.13;;;22.70;54.80;;;;;;5114830;28;20027;-39
2023/12/26 00:17:00;;;;;;;0.32;0.10;;;22.80;54.70;;;;;;5119855;28;20023;-40
2023/12/26 00:19:26;;;;;;;0.65;0.30;;;22.80;54.10;;;;;;5107768;28;20039;-40
2023/12/26 00:21:52;;;;;;;0.32;0.20;;;22.80;54.20;;;;;;5115071;28;20036;-39
2023/12/26 00:24:18;;;;;;;1.40;0.30;;;22.80;54.00;;;;;;5111443;28;20028;-40
2023/12/26 00:26:44;;;;;;;0.82;0.20;;;22.80;54.10;;;;;;5112482;28;20020;-40
2023/12/26 00:29:11;;;;;;;0.30;0.10;;;22.80;54.20;;;;;;5113539;28;20031;-40
2023/12/26 00:31:43;;;;;;;0.52;0.25;;;22.70;54.20;;;;;;5111676;28;20057;-47
2023/12/26 00:34:10;;;;;;;0.50;0.13;;;22.70;54.30;;;;;;5120048;28;20028;-40
2023/12/26 00:36:36;;;;;;;0.20;0.10;;;22.70;54.60;;;;;;5106672;28;20035;-40
2023/12/26 00:39:03;;;;;;;0.63;0.20;;;22.70;54.60;;;;;;5110725;28;20046;-39
2023/12/26 00:41:29;;;;;;;0.93;0.20;;;22.80;54.80;;;;;;5116008;28;20024;-40
2023/12/26 00:43:56;;;;;;;0.43;0.17;;;22.80;54.30;;;;;;5120992;28;20085;-40
2023/12/26 00:46:22;;;;;;;0.20;0.10;;;22.70;54.50;;;;;;5110332;28;20766;-39
2023/12/26 00:48:48;;;;;;;0.97;0.20;;;22.70;54.60;;;;;;5126202;27;20054;-39
2023/12/26 00:51:14;;;;;;;0.73;0.25;;;22.70;54.70;;;;;;5108522;28;20031;-39
2023/12/26 00:53:41;;;;;;;1.35;0.22;;;22.70;54.80;;;;;;5115751;28;20431;-39
2023/12/26 00:56:07;;;;;;;0.17;0.17;;;22.70;54.80;;;;;;5114154;28;20083;-39
2023/12/26 00:58:34;;;;;;;0.40;0.17;;;22.70;54.90;;;;;;5112844;28;20082;-39
2023/12/26 01:01:00;;;;;;;0.43;0.13;;;22.70;54.90;;;;;;5105508;28;20051;-39
2023/12/26 01:03:26;;;;;;;0.35;0.10;;;22.70;55.00;;;;;;5108035;28;20020;-39
2023/12/26 01:05:52;;;;;;;0.30;0.10;;;22.70;54.90;;;;;;5104270;28;20044;-39
2023/12/26 01:08:19;;;;;;;0.57;0.17;;;22.60;54.80;;;;;;5112364;28;20115;-39
2023/12/26 01:10:45;;;;;;;1.60;0.20;;;22.60;55.00;;;;;;5106525;28;20020;-39
2023/12/26 01:13:11;;;;;;;0.88;0.17;;;22.70;54.80;;;;;;5118107;28;20028;-39
2023/12/26 01:15:38;;;;;;;0.47;0.15;;;22.80;55.10;;;;;;5112770;28;20562;-40
2023/12/26 01:18:04;;;;;;;1.45;0.20;;;22.80;54.30;;;;;;5093983;28;20674;-39
2023/12/26 01:20:30;;;;;;;0.20;0.10;;;22.70;54.10;;;;;;5113724;28;20075;-39
2023/12/26 01:22:57;;;;;;;1.02;0.10;;;22.80;54.20;;;;;;5112907;28;20034;-39
2023/12/26 01:25:23;;;;;;;0.20;0.10;;;22.70;54.80;;;;;;5113352;28;20057;-39
2023/12/26 01:27:49;;;;;;;0.17;0.10;;;22.70;54.90;;;;;;5116126;28;20024;-39
2023/12/26 01:30:15;;;;;;;0.45;0.20;;;22.70;55.00;;;;;;5112737;28;20028;-40
2023/12/26 01:32:41;;;;;;;1.80;0.10;;;22.70;54.90;;;;;;5108842;28;20027;-40
2023/12/26 01:35:08;;;;;;;0.85;0.20;;;22.70;55.00;;;;;;5112072;28;20119;-40
2023/12/26 01:37:34;;;;;;;0.20;0.10;;;22.70;55.10;;;;;;5101777;28;20032;-40
2023/12/26 01:40:00;;;;;;;0.17;0.05;;;22.70;55.10;;;;;;5112944;28;20131;-40
2023/12/26 01:42:26;;;;;;;1.77;0.35;;;22.70;55.10;;;;;;5115028;28;20016;-40
2023/12/26 01:44:52;;;;;;;0.63;0.10;;;22.60;55.00;;;;;;5110248;28;20035;-40
2023/12/26 01:47:18;;;;;;;0.20;0.10;;;22.60;55.10;;;;;;5104771;28;20035;-40
2023/12/26 01:49:44;;;;;;;0.35;0.17;;;22.70;55.00;;;;;;5110960;28;20048;-40
2023/12/26 01:52:11;;;;;;;0.40;0.20;;;22.70;55.60;;;;;;5113374;28;20020;-40
2023/12/26 01:54:37;;;;;;;0.20;0.20;;;22.70;55.30;;;;;;5111076;28;20028;-40
2023/12/26 01:57:07;;;;;;;0.75;0.20;;;22.70;55.00;;;;;;5114335;28;20030;-41
2023/12/26 01:59:37;;;;;;;0.38;0.10;;;22.70;54.60;;;;;;5107796;28;20043;-40
2023/12/26 02:02:04;;;;;;;0.40;0.10;;;22.70;54.90;;;;;;5112263;28;20087;-40
2023/12/26 02:04:31;;;;;;;0.52;0.20;;;22.70;55.20;;;;;;5120605;27;20049;-39
2023/12/26 02:06:57;;;;;;;0.70;0.20;;;22.70;55.30;;;;;;5098588;28;20043;-39
2023/12/26 02:09:24;;;;;;;0.20;0.13;;;22.60;55.50;;;;;;5116055;28;20024;-39
2023/12/26 02:11:54;;;;;;;0.63;0.10;;;22.70;55.10;;;;;;5112932;28;20047;-39
2023/12/26 02:14:21;;;;;;;1.88;0.20;;;22.70;55.00;;;;;;5130102;27;20089;-40
2023/12/26 02:16:48;;;;;;;0.70;0.20;;;22.80;54.60;;;;;;5118130;28;20521;-39
2023/12/26 02:19:17;;;;;;;0.73;0.20;;;22.70;54.60;;;;;;5118818;28;20078;-40
2023/12/26 02:21:43;;;;;;;1.45;0.20;;;22.70;54.60;;;;;;5119371;27;20059;-40
2023/12/26 02:24:10;;;;;;;0.22;0.15;;;22.70;54.70;;;;;;5117136;28;20028;-39
2023/12/26 02:26:38;;;;;;;1.50;0.22;;;22.70;54.90;;;;;;5116538;28;20114;-40
2023/12/26 02:29:06;;;;;;;1.20;0.20;;;22.70;55.00;;;;;;5113438;28;20076;-39
2023/12/26 02:31:34;;;;;;;0.75;0.25;;;22.70;54.80;;;;;;5116170;27;20498;-40
2023/12/26 02:34:00;;;;;;;1.95;0.20;;;22.60;54.70;;;;;;5097164;28;20028;-40
2023/12/26 02:36:27;;;;;;;1.67;0.20;;;22.60;54.70;;;;;;5116501;28;20035;-40
2023/12/26 02:38:54;;;;;;;0.43;0.20;;;22.60;54.90;;;;;;5102891;28;20066;-40
2023/12/26 02:41:20;;;;;;;0.30;0.10;;;22.70;55.30;;;;;;5112395;28;20070;-39
2023/12/26 02:43:47;;;;;;;0.40;0.10;;;22.70;55.10;;;;;;5121202;28;20365;-40
2023/12/26 02:46:13;;;;;;;0.20;0.20;;;22.70;54.80;;;;;;5105328;28;20400;-39
2023/12/26 02:48:39;;;;;;;1.45;0.20;;;22.70;54.50;;;;;;5117985;28;20047;-39
2023/12/26 02:51:09;;;;;;;0.70;0.23;;;22.70;54.80;;;;;;5122662;28;20484;-40
2023/12/26 02:53:36;;;;;;;0.60;0.13;;;22.70;55.20;;;;;;5090019;28;20020;-39
2023/12/26 02:56:02;;;;;;;0.87;0.20;;;22.70;55.30;;;;;;5111710;28;20054;-40
2023/12/26 02:58:29;;;;;;;2.05;0.30;;;22.70;55.30;;;;;;5112773;28;20297;-40
2023/12/26 03:00:55;;;;;;;0.70;0.20;;;22.60;55.40;;;;;;5109616;28;20107;-40
2023/12/26 03:03:21;;;;;;;0.43;0.15;;;22.70;55.40;;;;;;5119032;28;20087;-41
2023/12/26 03:05:48;;;;;;;0.90;0.20;;;22.60;55.40;;;;;;5116499;28;20044;-40
2023/12/26 03:08:14;;;;;;;1.10;0.30;;;22.60;55.40;;;;;;5119592;28;20051;-39
2023/12/26 03:10:40;;;;;;;0.47;0.20;;;22.60;55.50;;;;;;5115280;28;20027;-39
2023/12/26 03:13:06;;;;;;;0.98;0.22;;;22.70;55.30;;;;;;5119043;28;20143;-40
2023/12/26 03:15:33;;;;;;;0.40;0.20;;;22.80;54.90;;;;;;5110978;27;20024;-40
2023/12/26 03:17:59;;;;;;;0.80;0.20;;;22.80;54.70;;;;;;5110301;28;20081;-40
2023/12/26 03:20:27;;;;;;;0.77;0.17;;;22.70;54.60;;;;;;5112011;28;20036;-39
2023/12/26 03:22:53;;;;;;;1.45;0.20;;;22.70;54.40;;;;;;5103284;28;20480;-38
2023/12/26 03:25:19;;;;;;;0.25;0.17;;;22.70;54.90;;;;;;5109636;28;20047;-40
2023/12/26 03:27:45;;;;;;;0.98;0.20;;;22.80;55.70;;;;;;5113667;28;20024;-37
2023/12/26 03:30:11;;;;;;;0.60;0.20;;;22.80;55.20;;;;;;5118109;28;20019;-38
2023/12/26 03:32:38;;;;;;;0.80;0.30;;;22.80;54.60;;;;;;5115017;28;20085;-37
2023/12/26 03:35:04;;;;;;;0.52;0.20;;;22.80;54.60;;;;;;5111090;28;20075;-37
2023/12/26 03:37:31;;;;;;;0.40;0.20;;;22.80;54.80;;;;;;5120089;27;20031;-37
2023/12/26 03:39:57;;;;;;;1.23;0.38;;;22.80;55.00;;;;;;5115828;28;20039;-38
2023/12/26 03:42:23;;;;;;;0.98;0.20;;;22.80;55.20;;;;;;5114421;28;20035;-38
2023/12/26 03:44:49;;;;;;;1.13;0.30;;;22.80;55.00;;;;;;5114575;28;20039;-39
2023/12/26 03:47:15;;;;;;;1.08;0.25;;;22.80;55.20;;;;;;5115520;28;20032;-39
2023/12/26 03:49:41;;;;;;;0.52;0.30;;;22.80;55.30;;;;;;5115422;28;20039;-39
2023/12/26 03:52:07;;;;;;;1.05;0.28;;;22.70;55.00;;;;;;5115195;28;20039;-39
2023/12/26 03:54:34;;;;;;;0.40;0.20;;;22.70;54.90;;;;;;5114944;28;20058;-39
2023/12/26 03:57:02;;;;;;;0.57;0.20;;;22.70;54.80;;;;;;5125690;27;20537;-39
2023/12/26 03:59:28;;;;;;;0.30;0.20;;;22.70;54.80;;;;;;5117387;28;20064;-39
2023/12/26 04:01:54;;;;;;;0.47;0.25;;;22.70;54.90;;;;;;5116270;28;20032;-39
2023/12/26 04:04:20;;;;;;;2.25;0.30;;;22.70;55.00;;;;;;5121915;28;20076;-39
2023/12/26 04:06:47;;;;;;;0.47;0.17;;;22.70;55.20;;;;;;5105753;28;20034;-39
2023/12/26 04:09:13;;;;;;;0.30;0.20;;;22.70;55.70;;;;;;5115327;28;20111;-40
2023/12/26 04:11:39;;;;;;;0.88;0.20;;;22.70;55.20;;;;;;5114668;28;20132;-40
2023/12/26 04:14:05;;;;;;;0.73;0.20;;;22.70;55.20;;;;;;5109663;28;20024;-40
2023/12/26 04:16:31;;;;;;;1.45;0.22;;;22.80;54.90;;;;;;5109540;28;20135;-52
2023/12/26 04:18:57;;;;;;;3.28;0.32;;;22.80;55.60;;;;;;5108187;28;20024;-54
2023/12/26 04:21:23;;;;;;;0.85;0.20;;;22.80;55.70;;;;;;5111661;28;20035;-50
2023/12/26 04:23:50;;;;;;;1.48;0.40;;;22.90;55.90;;;;;;5114395;28;20028;-48
2023/12/26 04:26:16;;;;;;;0.10;0.10;;;22.90;55.60;;;;;;5105983;28;20035;-48
2023/12/26 04:28:42;;;;;;;1.70;0.40;;;22.90;55.10;;;;;;5104242;28;20116;-49
2023/12/26 04:31:08;;;;;;;1.80;0.25;;;22.90;54.80;;;;;;5113661;28;20026;-49
2023/12/26 04:33:34;;;;;;;1.63;0.30;;;22.90;55.20;;;;;;5109883;28;20036;-48
2023/12/26 04:36:01;;;;;;;0.70;0.20;;;22.90;55.50;;;;;;5113302;28;20031;-48
2023/12/26 04:38:27;;;;;;;0.45;0.20;;;22.90;55.60;;;;;;5113186;28;20031;-49
2023/12/26 04:40:53;;;;;;;3.03;0.40;;;22.90;55.70;;;;;;5114365;28;20051;-51
2023/12/26 04:43:19;;;;;;;4.73;0.30;;;22.90;55.70;;;;;;5112131;28;20527;-49
2023/12/26 04:45:45;;;;;;;0.50;0.30;;;22.90;55.80;;;;;;5108269;28;20032;-49
2023/12/26 04:48:12;;;;;;;1.33;0.20;;;22.90;55.80;;;;;;5109191;28;20019;-48
2023/12/26 04:50:38;;;;;;;1.42;0.30;;;22.90;56.00;;;;;;5103869;28;20055;-49
2023/12/26 04:53:04;;;;;;;2.13;0.45;;;22.90;55.50;;;;;;5110662;28;20034;-51
2023/12/26 04:55:32;;;;;;;0.88;0.30;;;22.90;56.40;;;;;;5106413;28;20035;-53
2023/12/26 04:57:58;;;;;;;0.50;0.20;;;22.90;55.60;;;;;;5110094;28;20031;-47
2023/12/26 05:00:24;;;;;;;3.25;0.50;;;22.90;55.70;;;;;;5088619;28;20043;-47
2023/12/26 05:02:51;;;;;;;0.40;0.20;;;22.90;55.60;;;;;;5121303;28;20039;-48
2023/12/26 05:05:17;;;;;;;0.57;0.30;;;22.90;55.90;;;;;;5111672;28;20030;-47
2023/12/26 05:07:43;;;;;;;0.87;0.33;;;22.90;56.00;;;;;;5109176;28;20039;-47
2023/12/26 05:10:10;;;;;;;1.03;0.10;;;22.90;56.10;;;;;;5108989;28;20026;-47
2023/12/26 05:12:36;;;;;;;0.93;0.33;;;22.80;55.90;;;;;;5110953;28;20023;-47
2023/12/26 05:15:03;;;;;;;2.22;0.40;;;22.80;55.90;;;;;;5106415;28;20028;-48
2023/12/26 05:17:29;;;;;;;0.40;0.20;;;22.80;55.90;;;;;;5105077;28;20042;-48
2023/12/26 05:19:55;;;;;;;3.22;0.38;;;22.80;56.00;;;;;;5106785;28;20079;-47
2023/12/26 05:22:21;;;;;;;0.80;0.30;;;22.80;56.00;;;;;;5106410;28;20054;-47
2023/12/26 05:24:47;;;;;;;1.83;0.30;;;22.80;56.00;;;;;;5111070;28;20053;-47
2023/12/26 05:27:13;;;;;;;0.88;0.28;;;22.80;55.90;;;;;;5115061;28;20075;-51
2023/12/26 05:29:43;;;;;;;0.38;0.20;;;22.90;55.80;;;;;;5109962;28;20091;-51
2023/12/26 05:32:09;;;;;;;1.08;0.25;;;23.00;55.60;;;;;;5107894;28;20019;-50
2023/12/26 05:34:35;;;;;;;0.40;0.30;;;23.00;56.10;;;;;;5111795;28;20080;-48
2023/12/26 05:37:02;;;;;;;0.20;0.20;;;23.00;55.90;;;;;;5117400;28;20026;-49
2023/12/26 05:39:28;;;;;;;1.17;0.30;;;23.00;55.30;;;;;;5114041;28;20032;-47
2023/12/26 05:41:54;;;;;;;1.03;0.40;;;23.00;55.60;;;;;;5116966;27;20140;-49
2023/12/26 05:44:20;;;;;;;0.68;0.20;;;22.90;56.10;;;;;;5111834;28;20035;-48
2023/12/26 05:46:47;;;;;;;0.90;0.30;;;23.00;56.00;;;;;;5112408;28;20035;-48
2023/12/26 05:49:13;;;;;;;2.45;0.30;;;22.90;56.00;;;;;;5118741;27;20047;-47
2023/12/26 05:51:39;;;;;;;2.10;0.38;;;23.00;56.00;;;;;;5112128;28;20063;-49
2023/12/26 05:54:05;;;;;;;1.05;0.47;;;22.90;55.80;;;;;;5112254;28;20020;-51
2023/12/26 05:56:31;;;;;;;1.17;0.30;;;22.90;56.20;;;;;;5116773;28;20115;-48
2023/12/26 05:58:57;;;;;;;0.52;0.20;;;22.90;56.10;;;;;;5097111;28;20130;-47
2023/12/26 06:01:23;;;;;;;0.82;0.38;;;22.90;56.10;;;;;;5110998;28;20428;-47
2023/12/26 06:03:50;;;;;;;0.57;0.20;;;22.90;56.20;;;;;;5115157;28;20024;-48
2023/12/26 06:06:16;;;;;;;0.68;0.30;;;22.90;56.30;;;;;;5122742;28;20036;-44
2023/12/26 06:08:42;;;;;;;1.95;0.30;;;22.90;56.20;;;;;;5113053;28;20016;-43
2023/12/26 06:11:08;;;;;;;0.63;0.20;;;22.90;56.40;;;;;;5117680;28;20087;-47
2023/12/26 06:13:34;;;;;;;1.33;0.30;;;22.90;56.20;;;;;;5115697;27;20026;-47
2023/12/26 06:16:01;;;;;;;1.70;0.30;;;22.90;55.70;;;;;;5111038;28;20117;-48
2023/12/26 06:18:27;;;;;;;1.20;0.30;;;22.90;56.50;;;;;;5094550;28;20055;-46
2023/12/26 06:20:53;;;;;;;0.52;0.22;;;22.90;56.60;;;;;;5114646;28;20055;-46
2023/12/26 06:23:19;;;;;;;0.82;0.30;;;22.90;55.90;;;;;;5111425;28;20548;-47
2023/12/26 06:25:46;;;;;;;1.35;0.40;;;22.90;55.90;;;;;;5111895;28;20028;-48
2023/12/26 06:28:12;;;;;;;0.40;0.30;;;22.90;56.00;;;;;;5111510;28;20035;-50
2023/12/26 06:30:38;;;;;;;0.87;0.23;;;22.90;56.10;;;;;;5111428;28;20039;-47
2023/12/26 06:33:04;;;;;;;1.02;0.30;;;22.90;56.30;;;;;;5112566;28;20114;-46
2023/12/26 06:35:30;;;;;;;1.13;0.20;;;22.90;56.30;;;;;;5111523;28;20044;-45
2023/12/26 06:37:57;;;;;;;1.13;0.20;;;22.90;56.30;;;;;;5120465;28;20020;-48
2023/12/26 06:40:23;;;;;;;0.38;0.20;;;22.90;56.40;;;;;;5112708;28;20075;-44
2023/12/26 06:42:49;;;;;;;0.85;0.30;;;23.00;55.90;;;;;;5113181;28;20035;-48
2023/12/26 06:45:15;;;;;;;0.75;0.20;;;23.00;55.50;;;;;;5112840;27;20016;-45
2023/12/26 06:47:42;;;;;;;0.90;0.30;;;23.00;55.30;;;;;;5094817;28;20035;-46
2023/12/26 06:50:08;;;;;;;0.65;0.30;;;23.10;55.50;;;;;;5111561;28;20071;-45
2023/12/26 06:52:35;;;;;;;1.13;0.30;;;23.00;55.60;;;;;;5115923;28;20483;-45
2023/12/26 06:55:01;;;;;;;1.13;0.20;;;23.00;55.90;;;;;;5116841;28;20041;-38
2023/12/26 06:57:27;;;;;;;1.00;0.20;;;23.00;55.60;;;;;;5111223;28;20108;-38
2023/12/26 06:59:54;;;;;;;1.85;0.38;;;23.00;55.30;;;;;;5111843;27;20066;-38
2023/12/26 07:02:20;;;;;;;1.55;0.40;;;22.90;55.00;;;;;;5113623;28;20028;-39
2023/12/26 07:04:46;;;;;;;0.55;0.20;;;22.90;55.00;;;;;;5114668;28;20430;-39
2023/12/26 07:07:12;;;;;;;0.60;0.22;;;22.90;55.50;;;;;;5113041;28;20035;-38
2023/12/26 07:09:38;;;;;;;0.43;0.10;;;22.90;55.70;;;;;;5113723;28;20073;-38
2023/12/26 07:12:05;;;;;;;1.13;0.30;;;23.00;55.40;;;;;;5107751;28;20035;-38
2023/12/26 07:14:31;;;;;;;0.95;0.20;;;23.00;55.10;;;;;;5110152;28;20058;-38
2023/12/26 07:16:57;;;;;;;0.73;0.20;;;23.00;55.00;;;;;;5116632;28;20036;-38
2023/12/26 07:19:24;;;;;;;1.02;0.20;;;22.90;55.50;;;;;;5118537;27;20043;-37
2023/12/26 07:21:50;;;;;;;1.17;0.20;;;22.90;55.50;;;;;;5116533;28;20027;-38
2023/12/26 07:24:16;;;;;;;1.15;0.30;;;22.90;55.60;;;;;;5108892;27;20065;-38
2023/12/26 07:26:43;;;;;;;0.70;0.20;;;22.90;55.60;;;;;;5120280;28;20032;-38
2023/12/26 07:29:09;;;;;;;1.30;0.20;;;22.90;55.80;;;;;;5113853;28;20027;-38
2023/12/26 07:31:35;;;;;;;0.73;0.20;;;22.80;55.70;;;;;;5115878;27;20023;-38
2023/12/26 07:34:04;;;;;;;0.50;0.20;;;22.80;55.80;;;;;;5114655;28;20702;-39
2023/12/26 07:36:50;;;;;;;0.60;0.20;;;22.80;55.80;;;;;;5109561;28;20083;-39
2023/12/26 07:39:18;;;;;;;1.30;0.20;;;22.80;55.80;;;;;;5057693;28;20124;-39
2023/12/26 07:41:44;;;;;;;0.32;0.20;;;22.80;56.00;;;;;;5058557;28;20064;-39
2023/12/26 07:44:11;;;;;;;0.13;0.10;;;22.90;56.20;;;;;;5063770;28;20111;-38
2023/12/26 07:46:37;;;;;;;0.85;0.20;;;22.90;56.00;;;;;;5060722;28;20037;-39
2023/12/26 07:49:03;;;;;;;0.17;0.10;;;22.90;55.30;;;;;;5057243;28;20055;-38
2023/12/26 07:51:29;;;;;;;0.13;0.10;;;22.90;55.20;;;;;;5060142;28;20060;-38
2023/12/26 07:53:55;;;;;;;1.17;0.13;;;22.90;55.40;;;;;;5060263;28;20096;-38
2023/12/26 07:56:21;;;;;;;0.45;0.20;;;22.90;55.60;;;;;;5042794;28;20029;-38
2023/12/26 07:58:47;;;;;;;1.13;0.13;;;22.90;56.00;;;;;;5058440;28;20044;-38
2023/12/26 08:01:14;;;;;;;0.32;0.20;;;22.90;55.80;;;;;;5057472;28;20033;-38
2023/12/26 08:03:40;;;;;;;0.55;0.20;;;22.80;55.90;;;;;;5055315;28;20781;-39
2023/12/26 08:06:06;;;;;;;0.70;0.30;;;22.80;55.90;;;;;;5059177;28;20037;-38
2023/12/26 08:08:32;;;;;;;1.45;0.20;;;22.80;56.10;;;;;;5056140;28;20025;-39
2023/12/26 08:10:58;;;;;;;1.30;0.15;;;22.80;56.10;;;;;;5043109;28;20047;-38
2023/12/26 08:13:24;;;;;;;0.40;0.13;;;22.80;56.00;;;;;;5058619;28;20025;-38
2023/12/26 08:15:50;;;;;;;0.25;0.10;;;22.80;56.00;;;;;;5074002;28;20032;-38
2023/12/26 08:18:16;;;;;;;0.25;0.15;;;22.80;56.10;;;;;;5108436;28;20069;-37
2023/12/26 08:20:42;;;;;;;0.85;0.20;;;22.80;56.00;;;;;;5108087;28;20047;-39
2023/12/26 08:23:09;;;;;;;1.65;0.15;;;22.70;56.10;;;;;;5116600;28;20026;-37
2023/12/26 08:25:37;;;;;;;0.35;0.20;;;22.70;56.00;;;;;;5111998;28;20028;-37
2023/12/26 08:28:04;;;;;;;0.38;0.25;;;22.70;56.10;;;;;;5121402;28;20023;-37
2023/12/26 08:30:30;;;;;;;0.70;0.30;;;22.70;56.10;;;;;;5120623;28;20752;-37
2023/12/26 08:32:56;;;;;;;0.20;0.20;;;22.70;56.00;;;;;;5111154;28;20028;-37
2023/12/26 08:35:22;;;;;;;0.45;0.20;;;22.70;56.40;;;;;;5116082;28;20039;-37
2023/12/26 08:37:48;;;;;;;0.10;0.10;;;22.70;56.10;;;;;;5114923;28;20048;-37
2023/12/26 08:40:15;;;;;;;0.10;0.10;;;22.80;56.00;;;;;;5120424;28;20043;-38
2023/12/26 08:42:41;;;;;;;0.23;0.10;;;22.80;56.20;;;;;;5116227;28;20392;-38
2023/12/26 08:45:07;;;;;;;0.25;0.20;;;22.90;55.80;;;;;;5115727;28;20027;-38
2023/12/26 08:47:34;;;;;;;0.45;0.10;;;22.80;55.60;;;;;;5113574;28;20054;-38
2023/12/26 08:50:00;;;;;;;0.98;0.10;;;22.80;55.40;;;;;;5117332;27;20103;-38
2023/12/26 08:52:26;;;;;;;0.22;0.20;;;22.80;55.30;;;;;;5118615;28;20034;-38
2023/12/26 08:54:52;;;;;;;0.25;0.10;;;22.80;55.50;;;;;;5110572;28;20032;-38
2023/12/26 08:57:19;;;;;;;0.65;0.10;;;22.80;55.60;;;;;;5116603;28;20395;-38
2023/12/26 08:59:45;;;;;;;0.15;0.10;;;22.80;55.90;;;;;;5111182;28;20036;-37
2023/12/26 09:02:11;;;;;;;0.38;0.20;;;22.80;56.10;;;;;;5110171;28;20473;-38
2023/12/26 09:04:37;;;;;;;0.40;0.10;;;22.70;55.90;;;;;;5105612;28;20096;-37
2023/12/26 09:07:03;;;;;;;0.30;0.15;;;22.70;55.90;;;;;;5109668;28;20053;-39
2023/12/26 09:09:29;;;;;;;0.43;0.20;;;22.70;56.00;;;;;;5113425;28;20023;-39
2023/12/26 09:11:56;;;;;;;0.15;0.10;;;22.80;56.10;;;;;;5104248;28;20053;-36
2023/12/26 09:14:22;;;;;;;0.45;0.10;;;22.80;56.40;;;;;;5109536;28;20028;-37
2023/12/26 09:16:48;;;;;;;0.40;0.10;;;22.80;55.80;;;;;;5114556;28;20036;-37
2023/12/26 09:19:15;;;;;;;0.28;0.15;;;22.80;55.50;;;;;;5109321;28;20051;-38
2023/12/26 09:21:42;;;;;;;0.22;0.10;;;22.80;55.90;;;;;;5110441;28;20030;-38
2023/12/26 09:24:08;;;;;;;0.70;0.10;;;22.80;56.00;;;;;;5106194;28;20031;-38
2023/12/26 09:26:34;;;;;;;0.32;0.10;;;22.80;56.20;;;;;;5116687;28;20066;-37
2023/12/26 09:29:00;;;;;;;0.20;0.10;;;22.80;56.10;;;;;;5118866;28;20111;-38
2023/12/26 09:31:26;;;;;;;0.80;0.13;;;22.70;56.10;;;;;;5110466;28;20028;-38
2023/12/26 09:33:53;;;;;;;0.10;0.10;;;22.70;56.20;;;;;;5104976;28;20095;-38
2023/12/26 09:36:19;;;;;;;0.10;0.10;;;22.70;56.20;;;;;;5107813;28;20546;-38
2023/12/26 09:38:45;;;;;;;0.10;0.10;;;22.70;56.30;;;;;;5115964;28;20040;-38
2023/12/26 09:41:12;;;;;;;0.10;0.10;;;22.70;56.30;;;;;;5110254;28;20035;-39
2023/12/26 09:43:40;;;;;;;0.28;0.20;;;22.80;56.10;;;;;;5105651;28;20032;-39
2023/12/26 09:46:07;;;;;;;0.47;0.10;;;22.80;55.70;;;;;;5107660;28;20070;-39
2023/12/26 09:48:33;;;;;;;;;;;22.80;56.20;;;;;;5099489;28;20045;-39
2023/12/26 09:51:03;;;;;;;0.22;0.10;;;22.80;55.90;;;;;;5116120;28;20419;-39
2023/12/26 09:53:29;;;;;;;0.32;0.05;;;22.80;55.50;;;;;;5094900;28;20060;-39
2023/12/26 09:55:55;;;;;;;0.70;0.15;;;22.80;55.30;;;;;;5113452;28;20028;-39
2023/12/26 09:58:21;;;;;;;0.10;0.10;;;22.80;55.90;;;;;;5111110;28;20085;-40
2023/12/26 10:00:48;;;;;;;0.20;0.10;;;22.80;56.20;;;;;;5110788;28;20307;-38
2023/12/26 10:03:14;;;;;;;0.40;0.20;;;22.80;56.30;;;;;;5089787;28;20023;-39
2023/12/26 10:05:40;;;;;;;0.10;0.10;;;22.80;56.30;;;;;;5111568;28;20069;-39
2023/12/26 10:08:06;;;;;;;0.85;0.10;;;22.80;56.30;;;;;;5114096;28;20028;-39
2023/12/26 10:10:32;;;;;;;0.20;0.03;;;22.80;56.30;;;;;;5103846;28;20162;-40
2023/12/26 10:13:00;;;;;;;0.00;0.00;;;22.70;56.00;;;;;;5113421;28;20679;-40
2023/12/26 10:15:27;;;;;;;0.20;0.20;;;22.70;55.90;;;;;;5109716;28;20043;-40
2023/12/26 10:17:53;;;;;;;0.57;0.20;;;22.70;56.60;;;;;;5108155;28;20055;-40
2023/12/26 10:20:20;;;;;;;2.38;0.13;;;22.70;56.10;;;;;;5107645;28;20107;-40
2023/12/26 10:22:46;;;;;;;0.32;0.10;;;22.70;56.20;;;;;;5119481;27;20030;-40
2023/12/26 10:25:13;;;;;;;0.15;0.10;;;22.70;56.20;;;;;;5119483;28;20108;-39
2023/12/26 10:27:39;;;;;;;0.43;0.10;;;22.70;56.40;;;;;;5113943;28;20416;-39
2023/12/26 10:30:06;;;;;;;0.10;0.10;;;22.80;56.70;;;;;;5111275;28;20070;-39
2023/12/26 10:32:32;;;;;;;0.10;0.10;;;22.80;56.40;;;;;;5116109;28;20066;-40
2023/12/26 10:35:14;;;;;;;0.40;0.17;;;22.80;55.80;;;;;;5113841;28;20039;-40
2023/12/26 10:37:40;;;;;;;0.25;0.10;;;22.70;56.10;;;;;;5117808;28;20072;-40
2023/12/26 10:40:07;;;;;;;0.10;0.10;;;22.70;56.20;;;;;;5111504;28;20054;-39
2023/12/26 10:42:35;;;;;;;0.28;0.10;;;22.70;56.40;;;;;;5110981;27;20031;-39
2023/12/26 10:45:05;;;;;;;0.20;0.10;;;22.70;56.40;;;;;;5087999;28;20774;-40
2023/12/26 10:47:31;;;;;;;0.10;0.10;;;22.70;56.50;;;;;;5120821;28;20027;-39
2023/12/26 10:49:59;;;;;;;0.10;0.10;;;22.70;56.50;;;;;;5109187;28;20535;-40
2023/12/26 10:52:29;;;;;;;0.00;0.00;;;22.80;56.40;;;;;;5122566;28;20825;-39
2023/12/26 10:55:00;;;;;;;0.57;0.13;;;22.80;55.80;;;;;;5110401;28;20046;-39
2023/12/26 10:57:29;;;;;;;0.32;0.13;;;22.80;55.80;;;;;;5115632;28;20015;-39
2023/12/26 10:59:55;;;;;;;1.63;0.10;;;22.70;55.70;;;;;;5110214;27;20785;-39
2023/12/26 11:02:21;;;;;;;0.43;0.30;;;22.70;55.80;;;;;;5117319;28;20042;-40
2023/12/26 11:04:47;;;;;;;0.47;0.15;;;22.70;55.70;;;;;;5117567;28;20019;-40
2023/12/26 11:07:13;;;;;;;0.10;0.10;;;22.70;55.90;;;;;;5093531;28;20024;-39
2023/12/26 11:09:39;;;;;;;0.10;0.10;;;22.70;56.00;;;;;;5094660;28;20028;-39
2023/12/26 11:12:06;;;;;;;1.35;0.10;;;22.70;56.10;;;;;;5122495;28;20047;-39
2023/12/26 11:14:32;;;;;;;0.10;0.10;;;22.80;56.40;;;;;;5115287;28;20019;-41
2023/12/26 11:16:58;;;;;;;0.15;0.10;;;22.80;56.00;;;;;;5090604;28;20032;-40
2023/12/26 11:19:24;;;;;;;0.13;0.13;;;22.80;55.70;;;;;;5097092;28;20028;-39
2023/12/26 11:21:50;;;;;;;0.10;0.10;;;22.80;55.90;;;;;;5117190;27;20388;-41
2023/12/26 11:24:16;;;;;;;0.22;0.10;;;22.80;56.20;;;;;;5115170;28;20020;-40
2023/12/26 11:26:42;;;;;;;0.10;0.10;;;22.80;56.30;;;;;;5119435;27;20032;-40
2023/12/26 11:29:08;;;;;;;0.30;0.10;;;22.70;56.10;;;;;;5097216;28;20559;-40
2023/12/26 11:31:34;;;;;;;0.20;0.10;;;22.70;56.30;;;;;;5118065;28;20120;-40
2023/12/26 11:34:00;;;;;;;0.95;0.10;;;22.70;56.30;;;;;;5091149;28;20032;-40
2023/12/26 11:36:26;;;;;;;0.10;0.10;;;22.70;56.30;;;;;;5096733;28;20062;-40
2023/12/26 11:38:53;;;;;;;0.85;0.10;;;22.70;56.20;;;;;;5116687;28;20042;-40
2023/12/26 11:41:19;;;;;;;0.35;0.10;;;22.70;56.20;;;;;;5110273;28;20032;-40
2023/12/26 11:43:45;;;;;;;0.28;0.10;;;22.70;56.30;;;;;;5122390;27;20028;-40
2023/12/26 11:46:11;;;;;;;0.10;0.10;;;22.70;56.20;;;;;;5122430;28;20027;-39
2023/12/26 11:48:37;;;;;;;0.00;0.00;;;22.70;56.50;;;;;;5121400;28;20024;-40
2023/12/26 11:51:03;;;;;;;0.30;0.10;;;22.70;56.70;;;;;;5099043;28;20043;-40
2023/12/26 11:53:29;;;;;;;1.00;0.10;;;22.70;56.40;;;;;;5096109;28;20026;-40
2023/12/26 11:55:55;;;;;;;0.10;0.10;;;22.70;56.40;;;;;;5098488;28;20041;-39
2023/12/26 11:58:21;;;;;;;0.22;0.10;;;22.70;56.30;;;;;;5118439;28;20028;-40
2023/12/26 12:00:47;;;;;;;0.32;0.10;;;22.70;56.20;;;;;;5115346;28;20044;-40
2023/12/26 12:03:13;;;;;;;0.17;0.10;;;22.80;55.90;;;;;;5098401;28;20032;-40
2023/12/26 12:05:40;;;;;;;0.00;0.00;;;22.80;55.70;;;;;;5075886;28;20331;-40
2023/12/26 12:08:23;;;;;;;0.38;0.10;;;22.80;56.00;;;;;;5117359;28;20024;-39
2023/12/26 12:11:22;;;;;;;0.43;0.10;;;22.80;56.00;;;;;;5110989;28;20039;-39
2023/12/26 12:13:48;;;;;;;0.23;0.00;;;22.80;56.20;;;;;;5004316;28;20159;-39
2023/12/26 12:16:24;;;;;;;0.28;0.10;;;22.80;55.90;;;;;;5006181;28;20045;-39
2023/12/26 12:19:02;;;;;;;1.55;0.10;;;22.70;55.90;;;;;;5015372;28;20141;-39
2023/12/26 12:21:38;;;;;;;2.13;0.10;;;22.70;56.00;;;;;;5012000;28;20029;-40
2023/12/26 12:24:04;;;;;;;0.10;0.10;;;22.70;55.90;;;;;;5017465;28;20101;-40
2023/12/26 12:27:01;;;;;;;0.33;0.10;;;22.70;56.10;;;;;;5023230;28;20030;-40
2023/12/26 12:29:27;;;;;;;0.50;0.10;;;22.70;56.10;;;;;;5004088;28;20046;-39
2023/12/26 12:32:31;;;;;;;0.00;0.00;;;22.80;56.60;;;;;;5012071;28;20104;-40
2023/12/26 12:35:14;;;;;;;0.38;0.10;;;22.80;56.40;;;;;;5000245;28;20130;-40
2023/12/26 12:37:40;;;;;;;0.15;0.10;;;22.70;55.80;;;;;;4982768;28;20038;-40
2023/12/26 12:40:06;;;;;;;0.32;0.10;;;22.70;56.30;;;;;;4996759;28;20069;-39
2023/12/26 12:42:38;;;;;;;0.80;0.20;;;22.70;56.40;;;;;;4994816;28;20031;-39
2023/12/26 12:45:05;;;;;;;0.15;0.05;;;22.70;56.60;;;;;;4994802;28;20037;-38
2023/12/26 12:47:34;;;;;;;0.28;0.03;;;22.70;56.50;;;;;;4995955;28;20034;-39